sensor_id;sensor_type;location;lat;lon;timestamp;P1;durP1;ratioP1;P2;durP2;ratioP2
48516;SDS011;34310;51.904;4.256;2023-07-28T00:00:27;1.55;;;1.30;;
48516;SDS011;34310;51.904;4.256;2023-07-28T00:02:53;3.45;;;1.60;;
48516;SDS011;34310;51.904;4.256;2023-07-28T00:05:20;1.67;;;1.20;;
48516;SDS011;34310;51.904;4.256;2023-07-28T00:07:46;3.03;;;1.30;;
48516;SDS011;34310;51.904;4.256;2023-07-28T00:10:13;1.73;;;1.27;;
48516;SDS011;34310;51.904;4.256;2023-07-28T00:12:39;2.35;;;1.40;;
48516;SDS011;34310;51.904;4.256;2023-07-28T00:15:06;2.17;;;1.35;;
48516;SDS011;34310;51.904;4.256;2023-07-28T00:17:32;2.22;;;1.50;;
48516;SDS011;34310;51.904;4.256;2023-07-28T00:19:59;1.75;;;1.20;;
48516;SDS011;34310;51.904;4.256;2023-07-28T00:22:25;2.20;;;1.35;;
48516;SDS011;34310;51.904;4.256;2023-07-28T00:24:52;2.38;;;1.48;;
48516;SDS011;34310;51.904;4.256;2023-07-28T00:27:18;2.10;;;1.38;;
48516;SDS011;34310;51.904;4.256;2023-07-28T00:29:45;2.58;;;1.40;;
48516;SDS011;34310;51.904;4.256;2023-07-28T00:32:11;3.22;;;1.67;;
48516;SDS011;34310;51.904;4.256;2023-07-28T00:34:38;2.83;;;1.40;;
48516;SDS011;34310;51.904;4.256;2023-07-28T00:37:04;3.17;;;1.38;;
48516;SDS011;34310;51.904;4.256;2023-07-28T00:39:31;2.22;;;1.38;;
48516;SDS011;34310;51.904;4.256;2023-07-28T00:41:58;2.80;;;1.48;;
48516;SDS011;34310;51.904;4.256;2023-07-28T00:44:24;1.98;;;1.20;;
48516;SDS011;34310;51.904;4.256;2023-07-28T00:46:50;2.58;;;1.33;;
48516;SDS011;34310;51.904;4.256;2023-07-28T00:49:17;1.58;;;1.30;;
48516;SDS011;34310;51.904;4.256;2023-07-28T00:51:44;2.72;;;1.40;;
48516;SDS011;34310;51.904;4.256;2023-07-28T00:54:11;1.52;;;1.42;;
48516;SDS011;34310;51.904;4.256;2023-07-28T00:56:38;1.92;;;1.30;;
48516;SDS011;34310;51.904;4.256;2023-07-28T00:59:05;1.52;;;1.27;;
48516;SDS011;34310;51.904;4.256;2023-07-28T01:01:31;3.28;;;1.50;;
48516;SDS011;34310;51.904;4.256;2023-07-28T01:03:58;2.33;;;1.50;;
48516;SDS011;34310;51.904;4.256;2023-07-28T01:06:38;2.88;;;1.48;;
48516;SDS011;34310;51.904;4.256;2023-07-28T01:09:14;2.45;;;1.33;;
48516;SDS011;34310;51.904;4.256;2023-07-28T01:11:58;2.47;;;1.50;;
48516;SDS011;34310;51.904;4.256;2023-07-28T01:14:25;2.28;;;1.55;;
48516;SDS011;34310;51.904;4.256;2023-07-28T01:16:52;3.30;;;1.30;;
48516;SDS011;34310;51.904;4.256;2023-07-28T01:19:20;2.45;;;1.40;;
48516;SDS011;34310;51.904;4.256;2023-07-28T01:21:48;2.50;;;1.33;;
48516;SDS011;34310;51.904;4.256;2023-07-28T01:24:28;1.58;;;1.30;;
48516;SDS011;34310;51.904;4.256;2023-07-28T01:27:04;2.55;;;1.55;;
48516;SDS011;34310;51.904;4.256;2023-07-28T01:29:31;3.35;;;1.52;;
48516;SDS011;34310;51.904;4.256;2023-07-28T01:31:59;2.65;;;1.60;;
48516;SDS011;34310;51.904;4.256;2023-07-28T01:34:25;2.70;;;1.50;;
48516;SDS011;34310;51.904;4.256;2023-07-28T01:36:52;2.95;;;1.30;;
48516;SDS011;34310;51.904;4.256;2023-07-28T01:39:18;2.22;;;1.52;;
48516;SDS011;34310;51.904;4.256;2023-07-28T01:41:45;2.72;;;1.60;;
48516;SDS011;34310;51.904;4.256;2023-07-28T01:44:11;2.55;;;1.50;;
48516;SDS011;34310;51.904;4.256;2023-07-28T01:46:38;2.17;;;1.33;;
48516;SDS011;34310;51.904;4.256;2023-07-28T01:49:04;2.65;;;1.60;;
48516;SDS011;34310;51.904;4.256;2023-07-28T01:51:31;5.05;;;1.55;;
48516;SDS011;34310;51.904;4.256;2023-07-28T01:53:57;2.35;;;1.48;;
48516;SDS011;34310;51.904;4.256;2023-07-28T01:56:24;3.88;;;1.80;;
48516;SDS011;34310;51.904;4.256;2023-07-28T01:58:50;2.22;;;1.52;;
48516;SDS011;34310;51.904;4.256;2023-07-28T02:01:17;2.78;;;1.65;;
48516;SDS011;34310;51.904;4.256;2023-07-28T02:03:43;3.13;;;1.50;;
48516;SDS011;34310;51.904;4.256;2023-07-28T02:06:10;3.33;;;1.67;;
48516;SDS011;34310;51.904;4.256;2023-07-28T02:08:36;2.10;;;1.40;;
48516;SDS011;34310;51.904;4.256;2023-07-28T02:11:03;3.65;;;1.60;;
48516;SDS011;34310;51.904;4.256;2023-07-28T02:13:29;3.45;;;1.92;;
48516;SDS011;34310;51.904;4.256;2023-07-28T02:15:56;3.00;;;1.48;;
48516;SDS011;34310;51.904;4.256;2023-07-28T02:18:22;3.53;;;1.90;;
48516;SDS011;34310;51.904;4.256;2023-07-28T02:20:48;3.17;;;1.50;;
48516;SDS011;34310;51.904;4.256;2023-07-28T02:23:15;3.20;;;1.92;;
48516;SDS011;34310;51.904;4.256;2023-07-28T02:25:42;4.20;;;1.92;;
48516;SDS011;34310;51.904;4.256;2023-07-28T02:28:09;2.50;;;1.45;;
48516;SDS011;34310;51.904;4.256;2023-07-28T02:30:36;3.03;;;1.50;;
48516;SDS011;34310;51.904;4.256;2023-07-28T02:33:03;3.25;;;1.88;;
48516;SDS011;34310;51.904;4.256;2023-07-28T02:35:29;2.67;;;1.73;;
48516;SDS011;34310;51.904;4.256;2023-07-28T02:37:56;4.13;;;1.90;;
48516;SDS011;34310;51.904;4.256;2023-07-28T02:40:22;3.25;;;1.73;;
48516;SDS011;34310;51.904;4.256;2023-07-28T02:42:49;3.47;;;1.83;;
48516;SDS011;34310;51.904;4.256;2023-07-28T02:45:15;2.92;;;1.70;;
48516;SDS011;34310;51.904;4.256;2023-07-28T02:47:42;2.15;;;1.58;;
48516;SDS011;34310;51.904;4.256;2023-07-28T02:50:08;2.90;;;1.77;;
48516;SDS011;34310;51.904;4.256;2023-07-28T02:52:35;2.83;;;1.75;;
48516;SDS011;34310;51.904;4.256;2023-07-28T02:55:02;3.58;;;1.88;;
48516;SDS011;34310;51.904;4.256;2023-07-28T02:57:28;2.75;;;1.58;;
48516;SDS011;34310;51.904;4.256;2023-07-28T02:59:55;2.25;;;1.70;;
48516;SDS011;34310;51.904;4.256;2023-07-28T03:02:21;3.47;;;1.60;;
48516;SDS011;34310;51.904;4.256;2023-07-28T03:04:48;3.33;;;1.92;;
48516;SDS011;34310;51.904;4.256;2023-07-28T03:07:14;2.55;;;1.83;;
48516;SDS011;34310;51.904;4.256;2023-07-28T03:09:41;5.53;;;1.90;;
48516;SDS011;34310;51.904;4.256;2023-07-28T03:12:07;2.80;;;1.60;;
48516;SDS011;34310;51.904;4.256;2023-07-28T03:14:34;3.03;;;1.52;;
48516;SDS011;34310;51.904;4.256;2023-07-28T03:17:01;2.50;;;1.52;;
48516;SDS011;34310;51.904;4.256;2023-07-28T03:19:28;2.38;;;1.70;;
48516;SDS011;34310;51.904;4.256;2023-07-28T03:21:55;2.63;;;1.65;;
48516;SDS011;34310;51.904;4.256;2023-07-28T03:24:21;1.95;;;1.52;;
48516;SDS011;34310;51.904;4.256;2023-07-28T03:26:48;4.28;;;1.88;;
48516;SDS011;34310;51.904;4.256;2023-07-28T03:29:14;1.92;;;1.50;;
48516;SDS011;34310;51.904;4.256;2023-07-28T03:31:41;3.28;;;1.50;;
48516;SDS011;34310;51.904;4.256;2023-07-28T03:34:07;2.03;;;1.50;;
48516;SDS011;34310;51.904;4.256;2023-07-28T03:36:34;2.67;;;1.90;;
48516;SDS011;34310;51.904;4.256;2023-07-28T03:39:00;2.25;;;1.33;;
48516;SDS011;34310;51.904;4.256;2023-07-28T03:41:27;4.43;;;1.73;;
48516;SDS011;34310;51.904;4.256;2023-07-28T03:43:53;3.45;;;1.70;;
48516;SDS011;34310;51.904;4.256;2023-07-28T03:46:20;2.20;;;1.70;;
48516;SDS011;34310;51.904;4.256;2023-07-28T03:48:47;2.15;;;1.48;;
48516;SDS011;34310;51.904;4.256;2023-07-28T03:51:13;3.28;;;1.90;;
48516;SDS011;34310;51.904;4.256;2023-07-28T03:53:40;2.10;;;1.58;;
48516;SDS011;34310;51.904;4.256;2023-07-28T03:56:06;3.75;;;1.90;;
48516;SDS011;34310;51.904;4.256;2023-07-28T03:58:33;2.45;;;1.40;;
48516;SDS011;34310;51.904;4.256;2023-07-28T04:00:59;2.28;;;1.60;;
48516;SDS011;34310;51.904;4.256;2023-07-28T04:03:26;2.60;;;1.70;;
48516;SDS011;34310;51.904;4.256;2023-07-28T04:05:52;4.07;;;1.55;;
48516;SDS011;34310;51.904;4.256;2023-07-28T04:08:18;3.72;;;1.70;;
48516;SDS011;34310;51.904;4.256;2023-07-28T04:10:45;3.67;;;1.98;;
48516;SDS011;34310;51.904;4.256;2023-07-28T04:13:12;2.83;;;1.40;;
48516;SDS011;34310;51.904;4.256;2023-07-28T04:15:38;3.10;;;1.52;;
48516;SDS011;34310;51.904;4.256;2023-07-28T04:18:05;2.97;;;1.73;;
48516;SDS011;34310;51.904;4.256;2023-07-28T04:20:31;3.08;;;1.90;;
48516;SDS011;34310;51.904;4.256;2023-07-28T04:22:58;3.67;;;1.90;;
48516;SDS011;34310;51.904;4.256;2023-07-28T04:25:24;2.42;;;1.63;;
48516;SDS011;34310;51.904;4.256;2023-07-28T04:27:51;2.97;;;1.70;;
48516;SDS011;34310;51.904;4.256;2023-07-28T04:30:17;2.67;;;1.60;;
48516;SDS011;34310;51.904;4.256;2023-07-28T04:32:44;2.85;;;1.63;;
48516;SDS011;34310;51.904;4.256;2023-07-28T04:35:10;2.80;;;1.80;;
48516;SDS011;34310;51.904;4.256;2023-07-28T04:37:37;3.58;;;1.98;;
48516;SDS011;34310;51.904;4.256;2023-07-28T04:40:04;3.00;;;1.83;;
48516;SDS011;34310;51.904;4.256;2023-07-28T04:42:30;2.40;;;1.60;;
48516;SDS011;34310;51.904;4.256;2023-07-28T04:44:57;3.20;;;1.85;;
48516;SDS011;34310;51.904;4.256;2023-07-28T04:47:23;3.50;;;1.80;;
48516;SDS011;34310;51.904;4.256;2023-07-28T04:49:50;3.08;;;1.80;;
48516;SDS011;34310;51.904;4.256;2023-07-28T04:52:16;3.58;;;2.05;;
48516;SDS011;34310;51.904;4.256;2023-07-28T04:54:43;3.10;;;2.00;;
48516;SDS011;34310;51.904;4.256;2023-07-28T04:57:09;2.92;;;1.88;;
48516;SDS011;34310;51.904;4.256;2023-07-28T04:59:38;2.17;;;1.85;;
48516;SDS011;34310;51.904;4.256;2023-07-28T05:02:05;3.42;;;2.28;;
48516;SDS011;34310;51.904;4.256;2023-07-28T05:04:32;3.05;;;2.45;;
48516;SDS011;34310;51.904;4.256;2023-07-28T05:06:59;3.05;;;2.25;;
48516;SDS011;34310;51.904;4.256;2023-07-28T05:09:25;4.32;;;2.53;;
48516;SDS011;34310;51.904;4.256;2023-07-28T05:11:52;3.15;;;2.20;;
48516;SDS011;34310;51.904;4.256;2023-07-28T05:14:18;4.45;;;2.50;;
48516;SDS011;34310;51.904;4.256;2023-07-28T05:16:45;3.60;;;2.92;;
48516;SDS011;34310;51.904;4.256;2023-07-28T05:19:11;4.43;;;3.17;;
48516;SDS011;34310;51.904;4.256;2023-07-28T05:21:38;4.45;;;3.20;;
48516;SDS011;34310;51.904;4.256;2023-07-28T05:24:05;3.90;;;3.25;;
48516;SDS011;34310;51.904;4.256;2023-07-28T05:26:31;6.25;;;4.30;;
48516;SDS011;34310;51.904;4.256;2023-07-28T05:28:58;4.90;;;3.58;;
48516;SDS011;34310;51.904;4.256;2023-07-28T05:31:24;5.20;;;4.07;;
48516;SDS011;34310;51.904;4.256;2023-07-28T05:33:51;7.10;;;4.18;;
48516;SDS011;34310;51.904;4.256;2023-07-28T05:36:17;7.05;;;4.68;;
48516;SDS011;34310;51.904;4.256;2023-07-28T05:38:44;7.13;;;5.00;;
48516;SDS011;34310;51.904;4.256;2023-07-28T05:41:10;7.15;;;5.22;;
48516;SDS011;34310;51.904;4.256;2023-07-28T05:43:37;6.32;;;4.85;;
48516;SDS011;34310;51.904;4.256;2023-07-28T05:46:03;5.75;;;4.63;;
48516;SDS011;34310;51.904;4.256;2023-07-28T05:48:30;7.60;;;5.30;;
48516;SDS011;34310;51.904;4.256;2023-07-28T05:50:56;7.05;;;5.50;;
48516;SDS011;34310;51.904;4.256;2023-07-28T05:53:23;6.90;;;5.65;;
48516;SDS011;34310;51.904;4.256;2023-07-28T05:55:49;6.75;;;5.80;;
48516;SDS011;34310;51.904;4.256;2023-07-28T05:58:16;7.40;;;5.72;;
48516;SDS011;34310;51.904;4.256;2023-07-28T06:00:42;7.97;;;6.43;;
48516;SDS011;34310;51.904;4.256;2023-07-28T06:03:09;8.27;;;6.07;;
48516;SDS011;34310;51.904;4.256;2023-07-28T06:05:38;7.68;;;6.75;;
48516;SDS011;34310;51.904;4.256;2023-07-28T06:08:05;7.65;;;6.15;;
48516;SDS011;34310;51.904;4.256;2023-07-28T06:10:32;8.48;;;6.55;;
48516;SDS011;34310;51.904;4.256;2023-07-28T06:12:59;9.90;;;7.38;;
48516;SDS011;34310;51.904;4.256;2023-07-28T06:15:25;9.50;;;7.32;;
48516;SDS011;34310;51.904;4.256;2023-07-28T06:17:52;9.43;;;7.57;;
48516;SDS011;34310;51.904;4.256;2023-07-28T06:20:18;8.60;;;6.75;;
48516;SDS011;34310;51.904;4.256;2023-07-28T06:22:45;9.98;;;7.60;;
48516;SDS011;34310;51.904;4.256;2023-07-28T06:25:12;10.15;;;7.80;;
48516;SDS011;34310;51.904;4.256;2023-07-28T06:27:38;9.57;;;7.70;;
48516;SDS011;34310;51.904;4.256;2023-07-28T06:30:05;11.65;;;8.23;;
48516;SDS011;34310;51.904;4.256;2023-07-28T06:32:32;10.57;;;8.07;;
48516;SDS011;34310;51.904;4.256;2023-07-28T06:34:58;10.13;;;8.38;;
48516;SDS011;34310;51.904;4.256;2023-07-28T06:37:25;10.52;;;8.23;;
48516;SDS011;34310;51.904;4.256;2023-07-28T06:39:51;12.15;;;8.45;;
48516;SDS011;34310;51.904;4.256;2023-07-28T06:42:18;11.40;;;8.43;;
48516;SDS011;34310;51.904;4.256;2023-07-28T06:44:44;11.95;;;8.52;;
48516;SDS011;34310;51.904;4.256;2023-07-28T06:47:10;12.02;;;8.73;;
48516;SDS011;34310;51.904;4.256;2023-07-28T06:49:37;12.73;;;8.65;;
48516;SDS011;34310;51.904;4.256;2023-07-28T06:52:04;12.73;;;9.23;;
48516;SDS011;34310;51.904;4.256;2023-07-28T06:54:32;11.00;;;8.15;;
48516;SDS011;34310;51.904;4.256;2023-07-28T06:56:58;12.20;;;8.07;;
48516;SDS011;34310;51.904;4.256;2023-07-28T06:59:25;10.75;;;8.48;;
48516;SDS011;34310;51.904;4.256;2023-07-28T07:01:52;11.77;;;9.00;;
48516;SDS011;34310;51.904;4.256;2023-07-28T07:04:18;10.88;;;8.55;;
48516;SDS011;34310;51.904;4.256;2023-07-28T07:06:45;11.77;;;8.73;;
48516;SDS011;34310;51.904;4.256;2023-07-28T07:09:12;10.93;;;8.73;;
48516;SDS011;34310;51.904;4.256;2023-07-28T07:11:38;11.43;;;8.73;;
48516;SDS011;34310;51.904;4.256;2023-07-28T07:14:05;11.82;;;9.23;;
48516;SDS011;34310;51.904;4.256;2023-07-28T07:16:31;11.70;;;9.95;;
48516;SDS011;34310;51.904;4.256;2023-07-28T07:18:59;11.68;;;9.38;;
48516;SDS011;34310;51.904;4.256;2023-07-28T07:21:27;12.35;;;9.52;;
48516;SDS011;34310;51.904;4.256;2023-07-28T07:23:54;10.48;;;9.05;;
48516;SDS011;34310;51.904;4.256;2023-07-28T07:26:20;11.48;;;9.60;;
48516;SDS011;34310;51.904;4.256;2023-07-28T07:28:47;11.68;;;9.45;;
48516;SDS011;34310;51.904;4.256;2023-07-28T07:31:14;10.88;;;9.30;;
48516;SDS011;34310;51.904;4.256;2023-07-28T07:33:41;12.68;;;10.13;;
48516;SDS011;34310;51.904;4.256;2023-07-28T07:36:17;11.02;;;9.45;;
48516;SDS011;34310;51.904;4.256;2023-07-28T07:38:45;10.60;;;9.50;;
48516;SDS011;34310;51.904;4.256;2023-07-28T07:41:12;11.38;;;9.55;;
48516;SDS011;34310;51.904;4.256;2023-07-28T07:43:38;11.45;;;9.38;;
48516;SDS011;34310;51.904;4.256;2023-07-28T07:46:05;11.38;;;9.27;;
48516;SDS011;34310;51.904;4.256;2023-07-28T07:48:32;11.38;;;9.48;;
48516;SDS011;34310;51.904;4.256;2023-07-28T07:50:58;11.52;;;9.15;;
48516;SDS011;34310;51.904;4.256;2023-07-28T07:53:24;11.55;;;9.48;;
48516;SDS011;34310;51.904;4.256;2023-07-28T07:55:51;10.43;;;9.30;;
48516;SDS011;34310;51.904;4.256;2023-07-28T07:58:17;10.98;;;9.45;;
48516;SDS011;34310;51.904;4.256;2023-07-28T08:00:44;11.45;;;9.75;;
48516;SDS011;34310;51.904;4.256;2023-07-28T08:03:11;11.90;;;9.85;;
48516;SDS011;34310;51.904;4.256;2023-07-28T08:05:37;14.35;;;9.48;;
48516;SDS011;34310;51.904;4.256;2023-07-28T08:08:04;12.02;;;9.70;;
48516;SDS011;34310;51.904;4.256;2023-07-28T08:10:30;11.23;;;9.65;;
48516;SDS011;34310;51.904;4.256;2023-07-28T08:12:57;11.75;;;9.25;;
48516;SDS011;34310;51.904;4.256;2023-07-28T08:15:23;11.63;;;9.13;;
48516;SDS011;34310;51.904;4.256;2023-07-28T08:17:50;10.10;;;8.60;;
48516;SDS011;34310;51.904;4.256;2023-07-28T08:20:16;12.43;;;9.27;;
48516;SDS011;34310;51.904;4.256;2023-07-28T08:22:43;11.93;;;8.88;;
48516;SDS011;34310;51.904;4.256;2023-07-28T08:25:10;10.20;;;8.68;;
48516;SDS011;34310;51.904;4.256;2023-07-28T08:27:36;9.52;;;8.52;;
48516;SDS011;34310;51.904;4.256;2023-07-28T08:30:03;10.38;;;8.65;;
48516;SDS011;34310;51.904;4.256;2023-07-28T08:32:30;10.05;;;8.80;;
48516;SDS011;34310;51.904;4.256;2023-07-28T08:34:57;9.18;;;8.10;;
48516;SDS011;34310;51.904;4.256;2023-07-28T08:37:23;11.05;;;8.80;;
48516;SDS011;34310;51.904;4.256;2023-07-28T08:39:50;10.80;;;8.45;;
48516;SDS011;34310;51.904;4.256;2023-07-28T08:42:16;9.20;;;8.25;;
48516;SDS011;34310;51.904;4.256;2023-07-28T08:44:42;9.38;;;8.38;;
48516;SDS011;34310;51.904;4.256;2023-07-28T08:47:10;11.55;;;8.80;;
48516;SDS011;34310;51.904;4.256;2023-07-28T08:49:36;10.75;;;8.10;;
48516;SDS011;34310;51.904;4.256;2023-07-28T08:52:04;10.65;;;8.32;;
48516;SDS011;34310;51.904;4.256;2023-07-28T08:54:31;10.20;;;7.85;;
48516;SDS011;34310;51.904;4.256;2023-07-28T08:56:58;9.02;;;8.02;;
48516;SDS011;34310;51.904;4.256;2023-07-28T08:59:25;9.30;;;7.78;;
48516;SDS011;34310;51.904;4.256;2023-07-28T09:01:54;9.30;;;8.10;;
48516;SDS011;34310;51.904;4.256;2023-07-28T09:04:22;9.25;;;7.82;;
48516;SDS011;34310;51.904;4.256;2023-07-28T09:06:49;9.05;;;7.53;;
48516;SDS011;34310;51.904;4.256;2023-07-28T09:09:17;8.73;;;7.50;;
48516;SDS011;34310;51.904;4.256;2023-07-28T09:11:46;8.73;;;7.82;;
48516;SDS011;34310;51.904;4.256;2023-07-28T09:14:14;9.70;;;7.35;;
48516;SDS011;34310;51.904;4.256;2023-07-28T09:16:42;8.65;;;7.63;;
48516;SDS011;34310;51.904;4.256;2023-07-28T09:19:09;9.43;;;7.80;;
48516;SDS011;34310;51.904;4.256;2023-07-28T09:21:41;9.38;;;7.38;;
48516;SDS011;34310;51.904;4.256;2023-07-28T09:24:10;11.75;;;7.50;;
48516;SDS011;34310;51.904;4.256;2023-07-28T09:26:44;8.48;;;7.20;;
48516;SDS011;34310;51.904;4.256;2023-07-28T09:31:45;7.80;;;6.70;;
48516;SDS011;34310;51.904;4.256;2023-07-28T09:34:22;7.65;;;6.50;;
48516;SDS011;34310;51.904;4.256;2023-07-28T09:36:56;10.13;;;6.80;;
48516;SDS011;34310;51.904;4.256;2023-07-28T09:39:24;7.95;;;6.35;;
48516;SDS011;34310;51.904;4.256;2023-07-28T09:41:51;6.75;;;6.05;;
48516;SDS011;34310;51.904;4.256;2023-07-28T09:44:17;7.15;;;6.45;;
48516;SDS011;34310;51.904;4.256;2023-07-28T09:46:51;7.88;;;6.32;;
48516;SDS011;34310;51.904;4.256;2023-07-28T09:49:27;7.60;;;6.15;;
48516;SDS011;34310;51.904;4.256;2023-07-28T09:51:54;7.60;;;6.28;;
48516;SDS011;34310;51.904;4.256;2023-07-28T09:54:27;7.82;;;6.15;;
48516;SDS011;34310;51.904;4.256;2023-07-28T09:56:55;7.57;;;6.43;;
48516;SDS011;34310;51.904;4.256;2023-07-28T09:59:31;8.40;;;5.93;;
48516;SDS011;34310;51.904;4.256;2023-07-28T10:02:01;7.25;;;5.93;;
48516;SDS011;34310;51.904;4.256;2023-07-28T10:04:29;7.13;;;5.60;;
48516;SDS011;34310;51.904;4.256;2023-07-28T10:06:55;6.07;;;5.43;;
48516;SDS011;34310;51.904;4.256;2023-07-28T10:09:23;6.38;;;5.50;;
48516;SDS011;34310;51.904;4.256;2023-07-28T10:11:51;6.25;;;5.47;;
48516;SDS011;34310;51.904;4.256;2023-07-28T10:14:28;7.22;;;5.75;;
48516;SDS011;34310;51.904;4.256;2023-07-28T10:17:03;6.63;;;5.43;;
48516;SDS011;34310;51.904;4.256;2023-07-28T10:19:33;6.38;;;5.05;;
48516;SDS011;34310;51.904;4.256;2023-07-28T10:22:01;6.40;;;5.45;;
48516;SDS011;34310;51.904;4.256;2023-07-28T10:24:51;5.28;;;4.78;;
48516;SDS011;34310;51.904;4.256;2023-07-28T10:27:28;5.82;;;4.88;;
48516;SDS011;34310;51.904;4.256;2023-07-28T10:30:14;5.30;;;4.80;;
48516;SDS011;34310;51.904;4.256;2023-07-28T10:32:41;6.15;;;4.68;;
48516;SDS011;34310;51.904;4.256;2023-07-28T10:37:43;6.07;;;4.93;;
48516;SDS011;34310;51.904;4.256;2023-07-28T10:40:29;5.15;;;4.63;;
48516;SDS011;34310;51.904;4.256;2023-07-28T10:42:57;5.15;;;4.63;;
48516;SDS011;34310;51.904;4.256;2023-07-28T10:45:25;5.18;;;4.47;;
48516;SDS011;34310;51.904;4.256;2023-07-28T10:47:54;6.35;;;4.93;;
48516;SDS011;34310;51.904;4.256;2023-07-28T10:50:21;4.95;;;4.40;;
48516;SDS011;34310;51.904;4.256;2023-07-28T10:52:57;5.57;;;4.78;;
48516;SDS011;34310;51.904;4.256;2023-07-28T10:55:25;4.88;;;4.38;;
48516;SDS011;34310;51.904;4.256;2023-07-28T10:57:53;4.75;;;4.20;;
48516;SDS011;34310;51.904;4.256;2023-07-28T11:00:21;4.85;;;4.20;;
48516;SDS011;34310;51.904;4.256;2023-07-28T11:02:50;4.70;;;4.20;;
48516;SDS011;34310;51.904;4.256;2023-07-28T11:05:25;5.22;;;4.40;;
48516;SDS011;34310;51.904;4.256;2023-07-28T11:07:54;4.68;;;3.90;;
48516;SDS011;34310;51.904;4.256;2023-07-28T11:10:22;5.07;;;3.90;;
48516;SDS011;34310;51.904;4.256;2023-07-28T11:12:50;4.75;;;4.10;;
48516;SDS011;34310;51.904;4.256;2023-07-28T11:15:18;5.03;;;4.20;;
48516;SDS011;34310;51.904;4.256;2023-07-28T11:17:46;4.07;;;3.67;;
48516;SDS011;34310;51.904;4.256;2023-07-28T11:20:15;3.83;;;3.42;;
48516;SDS011;34310;51.904;4.256;2023-07-28T11:22:45;4.63;;;3.97;;
48516;SDS011;34310;51.904;4.256;2023-07-28T11:25:12;4.28;;;3.65;;
48516;SDS011;34310;51.904;4.256;2023-07-28T11:27:39;4.30;;;3.90;;
48516;SDS011;34310;51.904;4.256;2023-07-28T11:30:09;4.43;;;3.30;;
48516;SDS011;34310;51.904;4.256;2023-07-28T11:32:36;4.03;;;3.50;;
48516;SDS011;34310;51.904;4.256;2023-07-28T11:35:04;3.70;;;3.08;;
48516;SDS011;34310;51.904;4.256;2023-07-28T11:37:32;3.50;;;3.20;;
48516;SDS011;34310;51.904;4.256;2023-07-28T11:40:00;4.50;;;3.63;;
48516;SDS011;34310;51.904;4.256;2023-07-28T11:42:28;3.80;;;3.40;;
48516;SDS011;34310;51.904;4.256;2023-07-28T11:44:55;3.80;;;3.47;;
48516;SDS011;34310;51.904;4.256;2023-07-28T11:47:21;4.50;;;3.50;;
48516;SDS011;34310;51.904;4.256;2023-07-28T11:49:48;4.28;;;3.30;;
48516;SDS011;34310;51.904;4.256;2023-07-28T11:52:15;3.95;;;3.55;;
48516;SDS011;34310;51.904;4.256;2023-07-28T11:54:41;3.60;;;3.28;;
48516;SDS011;34310;51.904;4.256;2023-07-28T11:57:10;3.20;;;2.90;;
48516;SDS011;34310;51.904;4.256;2023-07-28T11:59:36;4.30;;;3.55;;
48516;SDS011;34310;51.904;4.256;2023-07-28T12:02:03;3.95;;;3.40;;
48516;SDS011;34310;51.904;4.256;2023-07-28T12:04:37;3.70;;;3.30;;
48516;SDS011;34310;51.904;4.256;2023-07-28T12:07:09;4.05;;;3.63;;
48516;SDS011;34310;51.904;4.256;2023-07-28T12:12:14;3.67;;;3.28;;
48516;SDS011;34310;51.904;4.256;2023-07-28T12:14:44;3.47;;;3.17;;
48516;SDS011;34310;51.904;4.256;2023-07-28T12:17:31;3.92;;;3.28;;
48516;SDS011;34310;51.904;4.256;2023-07-28T12:20:01;3.63;;;3.33;;
48516;SDS011;34310;51.904;4.256;2023-07-28T12:22:30;4.68;;;3.65;;
48516;SDS011;34310;51.904;4.256;2023-07-28T12:24:57;3.20;;;2.90;;
48516;SDS011;34310;51.904;4.256;2023-07-28T12:27:23;4.28;;;3.60;;
48516;SDS011;34310;51.904;4.256;2023-07-28T12:29:58;3.60;;;3.30;;
48516;SDS011;34310;51.904;4.256;2023-07-28T12:32:29;3.70;;;3.40;;
48516;SDS011;34310;51.904;4.256;2023-07-28T12:34:58;3.85;;;3.35;;
48516;SDS011;34310;51.904;4.256;2023-07-28T12:37:25;4.00;;;3.60;;
48516;SDS011;34310;51.904;4.256;2023-07-28T12:39:54;3.65;;;3.22;;
48516;SDS011;34310;51.904;4.256;2023-07-28T12:42:30;3.40;;;3.10;;
48516;SDS011;34310;51.904;4.256;2023-07-28T12:45:00;4.00;;;3.53;;
48516;SDS011;34310;51.904;4.256;2023-07-28T12:47:29;4.28;;;3.58;;
48516;SDS011;34310;51.904;4.256;2023-07-28T12:50:03;3.50;;;3.20;;
48516;SDS011;34310;51.904;4.256;2023-07-28T12:52:30;4.10;;;3.70;;
48516;SDS011;34310;51.904;4.256;2023-07-28T12:55:17;3.67;;;3.38;;
48516;SDS011;34310;51.904;4.256;2023-07-28T12:57:44;3.55;;;3.25;;
48516;SDS011;34310;51.904;4.256;2023-07-28T13:00:11;3.50;;;3.20;;
48516;SDS011;34310;51.904;4.256;2023-07-28T13:02:41;3.55;;;3.25;;
48516;SDS011;34310;51.904;4.256;2023-07-28T13:05:12;3.55;;;3.25;;
48516;SDS011;34310;51.904;4.256;2023-07-28T13:07:39;4.72;;;3.58;;
48516;SDS011;34310;51.904;4.256;2023-07-28T13:10:09;4.10;;;3.22;;
48516;SDS011;34310;51.904;4.256;2023-07-28T13:12:56;4.25;;;3.05;;
48516;SDS011;34310;51.904;4.256;2023-07-28T13:15:23;3.78;;;3.40;;
48516;SDS011;34310;51.904;4.256;2023-07-28T13:17:50;3.55;;;3.25;;
48516;SDS011;34310;51.904;4.256;2023-07-28T13:20:16;3.92;;;3.60;;
48516;SDS011;34310;51.904;4.256;2023-07-28T13:22:43;5.95;;;3.70;;
48516;SDS011;34310;51.904;4.256;2023-07-28T13:25:09;4.30;;;3.88;;
48516;SDS011;34310;51.904;4.256;2023-07-28T13:27:36;5.15;;;3.50;;
48516;SDS011;34310;51.904;4.256;2023-07-28T13:30:02;4.00;;;3.58;;
48516;SDS011;34310;51.904;4.256;2023-07-28T13:32:29;5.22;;;4.68;;
48516;SDS011;34310;51.904;4.256;2023-07-28T13:34:55;4.50;;;4.10;;
48516;SDS011;34310;51.904;4.256;2023-07-28T13:37:22;4.88;;;4.00;;
48516;SDS011;34310;51.904;4.256;2023-07-28T13:39:48;5.30;;;4.80;;
48516;SDS011;34310;51.904;4.256;2023-07-28T13:42:15;5.47;;;4.97;;
48516;SDS011;34310;51.904;4.256;2023-07-28T13:44:42;6.05;;;5.43;;
48516;SDS011;34310;51.904;4.256;2023-07-28T13:47:22;6.43;;;5.55;;
48516;SDS011;34310;51.904;4.256;2023-07-28T13:49:49;7.30;;;6.10;;
48516;SDS011;34310;51.904;4.256;2023-07-28T13:52:17;6.95;;;6.25;;
48516;SDS011;34310;51.904;4.256;2023-07-28T13:54:47;7.40;;;6.38;;
48516;SDS011;34310;51.904;4.256;2023-07-28T13:57:16;7.32;;;6.53;;
48516;SDS011;34310;51.904;4.256;2023-07-28T13:59:43;7.10;;;6.40;;
48516;SDS011;34310;51.904;4.256;2023-07-28T14:02:09;8.50;;;6.88;;
48516;SDS011;34310;51.904;4.256;2023-07-28T14:04:36;7.90;;;7.10;;
48516;SDS011;34310;51.904;4.256;2023-07-28T14:07:02;8.00;;;7.20;;
48516;SDS011;34310;51.904;4.256;2023-07-28T14:09:29;7.88;;;6.82;;
48516;SDS011;34310;51.904;4.256;2023-07-28T14:11:55;8.20;;;7.28;;
48516;SDS011;34310;51.904;4.256;2023-07-28T14:14:22;8.80;;;7.90;;
48516;SDS011;34310;51.904;4.256;2023-07-28T14:16:48;9.85;;;8.05;;
48516;SDS011;34310;51.904;4.256;2023-07-28T14:19:15;10.00;;;8.90;;
48516;SDS011;34310;51.904;4.256;2023-07-28T14:21:41;10.48;;;8.65;;
48516;SDS011;34310;51.904;4.256;2023-07-28T14:24:08;9.02;;;7.95;;
48516;SDS011;34310;51.904;4.256;2023-07-28T14:26:35;9.63;;;8.63;;
48516;SDS011;34310;51.904;4.256;2023-07-28T14:29:02;10.10;;;8.32;;
48516;SDS011;34310;51.904;4.256;2023-07-28T14:31:28;9.43;;;8.43;;
48516;SDS011;34310;51.904;4.256;2023-07-28T14:33:55;10.20;;;9.10;;
48516;SDS011;34310;51.904;4.256;2023-07-28T14:36:21;9.48;;;8.48;;
48516;SDS011;34310;51.904;4.256;2023-07-28T14:38:48;10.93;;;9.52;;
48516;SDS011;34310;51.904;4.256;2023-07-28T14:41:14;10.88;;;9.50;;
48516;SDS011;34310;51.904;4.256;2023-07-28T14:43:41;9.73;;;8.75;;
48516;SDS011;34310;51.904;4.256;2023-07-28T14:46:07;11.02;;;9.50;;
48516;SDS011;34310;51.904;4.256;2023-07-28T14:48:34;10.15;;;8.93;;
48516;SDS011;34310;51.904;4.256;2023-07-28T14:51:00;10.15;;;9.05;;
48516;SDS011;34310;51.904;4.256;2023-07-28T14:53:27;10.60;;;9.30;;
48516;SDS011;34310;51.904;4.256;2023-07-28T14:55:54;10.00;;;8.85;;